sensor_id;sensor_type;location;lat;lon;timestamp;pressure;altitude;pressure_sealevel;temperature;humidity
64908;BME280;64365;-1.756;110.040;2022-10-26T00:00:50;101404.94;;;12.97;89.22
64908;BME280;64365;-1.756;110.040;2022-10-26T00:03:18;101406.44;;;12.94;88.44
64908;BME280;64365;-1.756;110.040;2022-10-26T00:05:45;101397.31;;;12.95;88.74
64908;BME280;64365;-1.756;110.040;2022-10-26T00:08:11;101399.97;;;12.95;88.55
64908;BME280;64365;-1.756;110.040;2022-10-26T00:10:38;101385.88;;;12.95;88.26
64908;BME280;64365;-1.756;110.040;2022-10-26T00:13:07;101387.41;;;12.96;88.22
64908;BME280;64365;-1.756;110.040;2022-10-26T00:15:39;101380.53;;;12.95;88.11
64908;BME280;64365;-1.756;110.040;2022-10-26T00:18:05;101377.91;;;12.98;88.95
64908;BME280;64365;-1.756;110.040;2022-10-26T00:20:33;101375.22;;;12.98;90.17
64908;BME280;64365;-1.756;110.040;2022-10-26T00:22:59;101374.84;;;12.96;90.24
64908;BME280;64365;-1.756;110.040;2022-10-26T00:25:26;101373.72;;;12.97;90.30
64908;BME280;64365;-1.756;110.040;2022-10-26T00:27:52;101371.38;;;12.92;89.66
64908;BME280;64365;-1.756;110.040;2022-10-26T00:30:19;101374.75;;;12.89;90.03
64908;BME280;64365;-1.756;110.040;2022-10-26T00:32:45;101370.56;;;12.88;89.66
64908;BME280;64365;-1.756;110.040;2022-10-26T00:35:12;101372.13;;;12.93;90.62
64908;BME280;64365;-1.756;110.040;2022-10-26T00:37:40;101360.28;;;12.90;90.56
64908;BME280;64365;-1.756;110.040;2022-10-26T00:40:07;101359.88;;;12.88;91.34
64908;BME280;64365;-1.756;110.040;2022-10-26T00:42:34;101359.16;;;12.91;92.67
64908;BME280;64365;-1.756;110.040;2022-10-26T00:45:04;101353.06;;;12.91;91.67
64908;BME280;64365;-1.756;110.040;2022-10-26T00:47:37;101351.16;;;12.91;91.03
64908;BME280;64365;-1.756;110.040;2022-10-26T00:50:08;101357.22;;;12.88;89.88
64908;BME280;64365;-1.756;110.040;2022-10-26T00:52:36;101350.28;;;12.80;89.51
64908;BME280;64365;-1.756;110.040;2022-10-26T00:55:05;101352.22;;;12.83;89.76
64908;BME280;64365;-1.756;110.040;2022-10-26T01:00:01;101344.59;;;12.85;90.55
64908;BME280;64365;-1.756;110.040;2022-10-26T01:02:28;101335.16;;;12.91;91.11
64908;BME280;64365;-1.756;110.040;2022-10-26T01:04:55;101343.94;;;12.95;92.02
64908;BME280;64365;-1.756;110.040;2022-10-26T01:07:23;101331.03;;;12.97;90.79
64908;BME280;64365;-1.756;110.040;2022-10-26T01:09:50;101334.00;;;12.92;90.08
64908;BME280;64365;-1.756;110.040;2022-10-26T01:12:18;101331.72;;;12.91;90.55
64908;BME280;64365;-1.756;110.040;2022-10-26T01:14:45;101329.75;;;12.88;89.96
64908;BME280;64365;-1.756;110.040;2022-10-26T01:17:25;101331.16;;;12.74;89.11
64908;BME280;64365;-1.756;110.040;2022-10-26T01:20:19;101327.19;;;12.61;89.28
64908;BME280;64365;-1.756;110.040;2022-10-26T01:22:50;101322.16;;;12.52;89.28
64908;BME280;64365;-1.756;110.040;2022-10-26T01:25:38;101317.25;;;12.54;89.44
64908;BME280;64365;-1.756;110.040;2022-10-26T01:28:17;101314.19;;;12.56;89.53
64908;BME280;64365;-1.756;110.040;2022-10-26T01:30:49;101312.72;;;12.62;89.52
64908;BME280;64365;-1.756;110.040;2022-10-26T01:33:22;101308.19;;;12.66;89.97
64908;BME280;64365;-1.756;110.040;2022-10-26T01:36:02;101317.38;;;12.69;90.54
64908;BME280;64365;-1.756;110.040;2022-10-26T01:38:34;101303.28;;;12.68;90.37
64908;BME280;64365;-1.756;110.040;2022-10-26T01:41:09;101304.88;;;12.76;91.13
64908;BME280;64365;-1.756;110.040;2022-10-26T01:43:41;101301.00;;;12.70;90.76
64908;BME280;64365;-1.756;110.040;2022-10-26T01:46:10;101294.53;;;12.71;90.99
64908;BME280;64365;-1.756;110.040;2022-10-26T01:48:39;101299.78;;;12.60;90.75
64908;BME280;64365;-1.756;110.040;2022-10-26T01:51:08;101296.38;;;12.63;90.26
64908;BME280;64365;-1.756;110.040;2022-10-26T01:53:41;101295.66;;;12.67;90.76
64908;BME280;64365;-1.756;110.040;2022-10-26T01:56:13;101285.75;;;12.67;91.06
64908;BME280;64365;-1.756;110.040;2022-10-26T01:58:54;101288.47;;;12.71;91.45
64908;BME280;64365;-1.756;110.040;2022-10-26T02:01:34;101282.72;;;12.69;91.85
64908;BME280;64365;-1.756;110.040;2022-10-26T02:04:13;101285.00;;;12.70;90.91
64908;BME280;64365;-1.756;110.040;2022-10-26T02:06:50;101279.66;;;12.70;91.46
64908;BME280;64365;-1.756;110.040;2022-10-26T02:09:28;101273.63;;;12.77;91.97
64908;BME280;64365;-1.756;110.040;2022-10-26T02:12:02;101274.44;;;12.77;92.03
64908;BME280;64365;-1.756;110.040;2022-10-26T02:14:35;101280.53;;;12.78;91.86
64908;BME280;64365;-1.756;110.040;2022-10-26T02:17:14;101266.78;;;12.76;90.85
64908;BME280;64365;-1.756;110.040;2022-10-26T02:19:43;101266.00;;;12.75;90.98
64908;BME280;64365;-1.756;110.040;2022-10-26T02:22:14;101278.50;;;12.68;91.52
64908;BME280;64365;-1.756;110.040;2022-10-26T02:24:43;101271.31;;;12.72;91.54
64908;BME280;64365;-1.756;110.040;2022-10-26T02:27:15;101277.06;;;12.74;91.59
64908;BME280;64365;-1.756;110.040;2022-10-26T02:29:45;101267.19;;;12.78;91.29
64908;BME280;64365;-1.756;110.040;2022-10-26T02:32:16;101263.38;;;12.79;91.12
64908;BME280;64365;-1.756;110.040;2022-10-26T02:34:45;101264.56;;;12.85;91.42
64908;BME280;64365;-1.756;110.040;2022-10-26T02:37:16;101263.47;;;12.90;91.39
64908;BME280;64365;-1.756;110.040;2022-10-26T02:39:45;101263.50;;;12.93;91.20
64908;BME280;64365;-1.756;110.040;2022-10-26T02:42:14;101257.84;;;12.98;91.13
64908;BME280;64365;-1.756;110.040;2022-10-26T02:44:45;101251.78;;;13.02;92.83
64908;BME280;64365;-1.756;110.040;2022-10-26T02:47:12;101241.53;;;13.07;92.23
64908;BME280;64365;-1.756;110.040;2022-10-26T02:49:41;101245.75;;;13.12;92.11
64908;BME280;64365;-1.756;110.040;2022-10-26T02:52:11;101243.50;;;13.14;92.56
64908;BME280;64365;-1.756;110.040;2022-10-26T02:54:50;101247.31;;;13.17;91.16
64908;BME280;64365;-1.756;110.040;2022-10-26T02:57:19;101245.03;;;13.19;91.40
64908;BME280;64365;-1.756;110.040;2022-10-26T02:59:49;101241.22;;;13.20;91.87
64908;BME280;64365;-1.756;110.040;2022-10-26T03:02:16;101237.44;;;13.24;92.23
64908;BME280;64365;-1.756;110.040;2022-10-26T03:04:48;101239.78;;;13.29;92.39
64908;BME280;64365;-1.756;110.040;2022-10-26T03:07:19;101242.09;;;13.35;92.13
64908;BME280;64365;-1.756;110.040;2022-10-26T03:09:46;101241.31;;;13.30;90.65
64908;BME280;64365;-1.756;110.040;2022-10-26T03:12:13;101240.94;;;13.32;90.86
64908;BME280;64365;-1.756;110.040;2022-10-26T03:14:40;101233.69;;;13.29;90.62
64908;BME280;64365;-1.756;110.040;2022-10-26T03:17:07;101224.50;;;13.30;90.11
64908;BME280;64365;-1.756;110.040;2022-10-26T03:19:33;101226.47;;;13.33;90.37
64908;BME280;64365;-1.756;110.040;2022-10-26T03:22:01;101222.31;;;13.36;90.12
64908;BME280;64365;-1.756;110.040;2022-10-26T03:24:28;101236.03;;;13.38;89.82
64908;BME280;64365;-1.756;110.040;2022-10-26T03:26:54;101231.50;;;13.42;90.71
64908;BME280;64365;-1.756;110.040;2022-10-26T03:29:21;101231.50;;;13.42;90.94
64908;BME280;64365;-1.756;110.040;2022-10-26T03:31:47;101238.78;;;13.45;90.65
64908;BME280;64365;-1.756;110.040;2022-10-26T03:34:18;101236.44;;;13.43;89.98
64908;BME280;64365;-1.756;110.040;2022-10-26T03:36:45;101233.78;;;13.43;90.11
64908;BME280;64365;-1.756;110.040;2022-10-26T03:39:12;101228.09;;;13.45;90.00
64908;BME280;64365;-1.756;110.040;2022-10-26T03:41:39;101223.88;;;13.47;90.51
64908;BME280;64365;-1.756;110.040;2022-10-26T03:44:05;101218.56;;;13.44;91.04
64908;BME280;64365;-1.756;110.040;2022-10-26T03:46:32;101218.16;;;13.45;90.90
64908;BME280;64365;-1.756;110.040;2022-10-26T03:48:59;101213.59;;;13.46;90.47
64908;BME280;64365;-1.756;110.040;2022-10-26T03:51:25;101216.59;;;13.41;91.16
64908;BME280;64365;-1.756;110.040;2022-10-26T03:53:52;101222.31;;;13.36;90.87
64908;BME280;64365;-1.756;110.040;2022-10-26T03:56:20;101224.22;;;13.39;90.38
64908;BME280;64365;-1.756;110.040;2022-10-26T03:58:46;101218.84;;;13.35;90.45
64908;BME280;64365;-1.756;110.040;2022-10-26T04:01:13;101219.66;;;13.39;90.75
64908;BME280;64365;-1.756;110.040;2022-10-26T04:03:40;101224.63;;;13.41;90.09
64908;BME280;64365;-1.756;110.040;2022-10-26T04:06:06;101221.22;;;13.44;90.61
64908;BME280;64365;-1.756;110.040;2022-10-26T04:08:33;101217.03;;;13.50;91.15
64908;BME280;64365;-1.756;110.040;2022-10-26T04:10:59;101209.47;;;13.56;92.29
64908;BME280;64365;-1.756;110.040;2022-10-26T04:13:27;101214.81;;;13.59;91.76
64908;BME280;64365;-1.756;110.040;2022-10-26T04:15:54;101217.88;;;13.65;91.61
64908;BME280;64365;-1.756;110.040;2022-10-26T04:18:20;101219.03;;;13.64;89.93
64908;BME280;64365;-1.756;110.040;2022-10-26T04:20:47;101214.84;;;13.63;89.89
64908;BME280;64365;-1.756;110.040;2022-10-26T04:23:15;101216.34;;;13.60;89.58
64908;BME280;64365;-1.756;110.040;2022-10-26T04:25:42;101214.81;;;13.59;89.23
64908;BME280;64365;-1.756;110.040;2022-10-26T04:28:10;101209.09;;;13.57;88.83
64908;BME280;64365;-1.756;110.040;2022-10-26T04:30:39;101216.34;;;13.60;88.43
64908;BME280;64365;-1.756;110.040;2022-10-26T04:33:06;101209.47;;;13.56;88.25
64908;BME280;64365;-1.756;110.040;2022-10-26T04:35:33;101209.84;;;13.58;88.62
64908;BME280;64365;-1.756;110.040;2022-10-26T04:38:01;101200.28;;;13.53;88.28
64908;BME280;64365;-1.756;110.040;2022-10-26T04:40:28;101204.88;;;13.56;88.78
64908;BME280;64365;-1.756;110.040;2022-10-26T04:42:56;101194.16;;;13.49;89.08
64908;BME280;64365;-1.756;110.040;2022-10-26T04:45:22;101197.19;;;13.47;88.63
64908;BME280;64365;-1.756;110.040;2022-10-26T04:47:59;101189.16;;;13.40;87.82
64908;BME280;64365;-1.756;110.040;2022-10-26T04:50:26;101190.31;;;13.43;88.10
64908;BME280;64365;-1.756;110.040;2022-10-26T04:52:53;101197.19;;;13.44;87.68
64908;BME280;64365;-1.756;110.040;2022-10-26T04:55:19;101199.84;;;13.44;87.73
64908;BME280;64365;-1.756;110.040;2022-10-26T04:57:46;101200.97;;;13.39;87.57
64908;BME280;64365;-1.756;110.040;2022-10-26T05:00:13;101199.06;;;13.40;87.62
64908;BME280;64365;-1.756;110.040;2022-10-26T05:02:39;101202.53;;;13.44;88.19
64908;BME280;64365;-1.756;110.040;2022-10-26T05:05:08;101207.78;;;13.33;87.46
64908;BME280;64365;-1.756;110.040;2022-10-26T05:07:35;101210.13;;;13.38;87.59
64908;BME280;64365;-1.756;110.040;2022-10-26T05:10:02;101201.75;;;13.40;87.64
64908;BME280;64365;-1.756;110.040;2022-10-26T05:12:29;101208.59;;;13.41;87.98
64908;BME280;64365;-1.756;110.040;2022-10-26T05:14:56;101208.63;;;13.44;87.97
64908;BME280;64365;-1.756;110.040;2022-10-26T05:17:23;101201.00;;;13.43;87.79
64908;BME280;64365;-1.756;110.040;2022-10-26T05:19:50;101204.44;;;13.47;87.57
64908;BME280;64365;-1.756;110.040;2022-10-26T05:22:21;101196.44;;;13.47;88.04
64908;BME280;64365;-1.756;110.040;2022-10-26T05:24:47;101201.03;;;13.50;88.28
64908;BME280;64365;-1.756;110.040;2022-10-26T05:27:14;101205.59;;;13.50;87.91
64908;BME280;64365;-1.756;110.040;2022-10-26T05:29:41;101197.22;;;13.51;87.32
64908;BME280;64365;-1.756;110.040;2022-10-26T05:32:07;101200.28;;;13.50;87.06
64908;BME280;64365;-1.756;110.040;2022-10-26T05:34:34;101204.09;;;13.52;87.27
64908;BME280;64365;-1.756;110.040;2022-10-26T05:37:00;101202.56;;;13.51;86.98
64908;BME280;64365;-1.756;110.040;2022-10-26T05:39:28;101199.50;;;13.49;86.88
64908;BME280;64365;-1.756;110.040;2022-10-26T05:41:55;101199.50;;;13.53;86.97
64908;BME280;64365;-1.756;110.040;2022-10-26T05:44:22;101194.94;;;13.53;86.97
64908;BME280;64365;-1.756;110.040;2022-10-26T05:46:48;101199.56;;;13.60;87.36
64908;BME280;64365;-1.756;110.040;2022-10-26T05:49:15;101191.91;;;13.58;87.15
64908;BME280;64365;-1.756;110.040;2022-10-26T05:51:41;101194.97;;;13.60;86.52
64908;BME280;64365;-1.756;110.040;2022-10-26T05:54:07;101205.66;;;13.60;86.59
64908;BME280;64365;-1.756;110.040;2022-10-26T05:56:37;101200.31;;;13.60;86.43
64908;BME280;64365;-1.756;110.040;2022-10-26T05:59:10;101199.16;;;13.58;85.75
64908;BME280;64365;-1.756;110.040;2022-10-26T06:01:46;101202.59;;;13.58;86.32
64908;BME280;64365;-1.756;110.040;2022-10-26T06:04:35;101201.47;;;13.59;85.70
64908;BME280;64365;-1.756;110.040;2022-10-26T06:07:04;101203.00;;;13.60;86.18
64908;BME280;64365;-1.756;110.040;2022-10-26T06:09:35;101205.69;;;13.64;86.11
64908;BME280;64365;-1.756;110.040;2022-10-26T06:12:04;101212.56;;;13.69;86.67
64908;BME280;64365;-1.756;110.040;2022-10-26T06:14:32;101215.63;;;13.67;86.19
64908;BME280;64365;-1.756;110.040;2022-10-26T06:17:06;101218.28;;;13.67;86.09
64908;BME280;64365;-1.756;110.040;2022-10-26T06:19:46;101215.66;;;13.71;85.77
64908;BME280;64365;-1.756;110.040;2022-10-26T06:22:25;101219.03;;;13.68;85.66
64908;BME280;64365;-1.756;110.040;2022-10-26T06:25:00;101215.66;;;13.74;85.88
64908;BME280;64365;-1.756;110.040;2022-10-26T06:27:37;101221.00;;;13.74;85.46
64908;BME280;64365;-1.756;110.040;2022-10-26T06:30:08;101223.66;;;13.74;85.38
64908;BME280;64365;-1.756;110.040;2022-10-26T06:32:36;101224.41;;;13.71;85.17
64908;BME280;64365;-1.756;110.040;2022-10-26T06:35:18;101224.03;;;13.73;85.38
64908;BME280;64365;-1.756;110.040;2022-10-26T06:37:48;101213.69;;;13.64;85.21
64908;BME280;64365;-1.756;110.040;2022-10-26T06:40:16;101217.13;;;13.64;85.89
64908;BME280;64365;-1.756;110.040;2022-10-26T06:42:45;101212.19;;;13.67;85.90
64908;BME280;64365;-1.756;110.040;2022-10-26T06:45:13;101211.38;;;13.62;85.73
64908;BME280;64365;-1.756;110.040;2022-10-26T06:47:43;101217.16;;;13.68;85.65
64908;BME280;64365;-1.756;110.040;2022-10-26T06:50:25;101220.22;;;13.67;85.60
64908;BME280;64365;-1.756;110.040;2022-10-26T06:53:02;101223.63;;;13.67;85.89
64908;BME280;64365;-1.756;110.040;2022-10-26T06:55:37;101227.88;;;13.75;85.52
64908;BME280;64365;-1.756;110.040;2022-10-26T06:58:10;101229.38;;;13.73;85.56
64908;BME280;64365;-1.756;110.040;2022-10-26T07:00:39;101222.50;;;13.72;85.77
64908;BME280;64365;-1.756;110.040;2022-10-26T07:03:05;101217.56;;;13.74;85.67
64908;BME280;64365;-1.756;110.040;2022-10-26T07:05:32;101217.94;;;13.76;85.55
64908;BME280;64365;-1.756;110.040;2022-10-26T07:07:59;101223.34;;;13.83;85.35
64908;BME280;64365;-1.756;110.040;2022-10-26T07:10:25;101224.44;;;13.78;85.08
64908;BME280;64365;-1.756;110.040;2022-10-26T07:12:52;101229.41;;;13.80;85.16
64908;BME280;64365;-1.756;110.040;2022-10-26T07:15:20;101232.09;;;13.84;85.32
64908;BME280;64365;-1.756;110.040;2022-10-26T07:17:47;101225.22;;;13.82;85.49
64908;BME280;64365;-1.756;110.040;2022-10-26T07:20:15;101229.47;;;13.87;85.27
64908;BME280;64365;-1.756;110.040;2022-10-26T07:22:42;101237.09;;;13.89;85.16
64908;BME280;64365;-1.756;110.040;2022-10-26T07:25:09;101231.00;;;13.92;85.04
64908;BME280;64365;-1.756;110.040;2022-10-26T07:27:36;101233.69;;;13.95;84.93
64908;BME280;64365;-1.756;110.040;2022-10-26T07:30:04;101244.41;;;13.99;85.39
64908;BME280;64365;-1.756;110.040;2022-10-26T07:32:31;101234.88;;;14.05;85.22
64908;BME280;64365;-1.756;110.040;2022-10-26T07:34:58;101239.91;;;14.28;85.68
64908;BME280;64365;-1.756;110.040;2022-10-26T07:37:25;101235.75;;;14.60;84.91
64908;BME280;64365;-1.756;110.040;2022-10-26T07:39:51;101244.63;;;15.04;83.94
64908;BME280;64365;-1.756;110.040;2022-10-26T07:42:18;101248.75;;;15.52;81.77
64908;BME280;64365;-1.756;110.040;2022-10-26T07:44:45;101248.59;;;16.13;80.26
64908;BME280;64365;-1.756;110.040;2022-10-26T07:47:11;101253.19;;;16.76;77.61
64908;BME280;64365;-1.756;110.040;2022-10-26T07:49:39;101251.16;;;17.40;74.29
64908;BME280;64365;-1.756;110.040;2022-10-26T07:52:06;101252.41;;;18.00;71.76
64908;BME280;64365;-1.756;110.040;2022-10-26T07:54:32;101254.78;;;18.53;69.88
64908;BME280;64365;-1.756;110.040;2022-10-26T07:56:59;101260.25;;;19.00;67.80
64908;BME280;64365;-1.756;110.040;2022-10-26T07:59:25;101268.25;;;19.28;65.63
64908;BME280;64365;-1.756;110.040;2022-10-26T08:01:52;101274.88;;;19.23;64.53
64908;BME280;64365;-1.756;110.040;2022-10-26T08:04:19;101274.06;;;19.02;64.73
64908;BME280;64365;-1.756;110.040;2022-10-26T08:06:47;101262.75;;;18.88;65.14
64908;BME280;64365;-1.756;110.040;2022-10-26T08:09:13;101261.91;;;18.94;66.14
64908;BME280;64365;-1.756;110.040;2022-10-26T08:11:40;101263.69;;;19.01;65.80
64908;BME280;64365;-1.756;110.040;2022-10-26T08:14:06;101268.91;;;18.88;64.84
64908;BME280;64365;-1.756;110.040;2022-10-26T08:16:33;101272.91;;;18.76;65.41
64908;BME280;64365;-1.756;110.040;2022-10-26T08:18:59;101277.53;;;18.76;66.39
64908;BME280;64365;-1.756;110.040;2022-10-26T08:21:26;101268.69;;;18.75;66.16
64908;BME280;64365;-1.756;110.040;2022-10-26T08:23:54;101278.69;;;18.75;65.58
64908;BME280;64365;-1.756;110.040;2022-10-26T08:26:20;101287.03;;;18.84;65.82
64908;BME280;64365;-1.756;110.040;2022-10-26T08:28:48;101296.84;;;18.98;65.91
64908;BME280;64365;-1.756;110.040;2022-10-26T08:31:15;101292.97;;;19.23;65.71
64908;BME280;64365;-1.756;110.040;2022-10-26T08:33:41;101295.47;;;19.33;64.83
64908;BME280;64365;-1.756;110.040;2022-10-26T08:36:08;101299.88;;;19.67;64.75
64908;BME280;64365;-1.756;110.040;2022-10-26T08:38:34;101315.88;;;19.98;62.35
64908;BME280;64365;-1.756;110.040;2022-10-26T08:41:07;101313.88;;;20.02;62.19
64908;BME280;64365;-1.756;110.040;2022-10-26T08:43:36;101319.75;;;19.97;62.95
64908;BME280;64365;-1.756;110.040;2022-10-26T08:46:08;101311.50;;;20.05;62.03
64908;BME280;64365;-1.756;110.040;2022-10-26T08:48:39;101308.16;;;19.77;61.62
64908;BME280;64365;-1.756;110.040;2022-10-26T08:51:12;101314.00;;;19.31;62.58
64908;BME280;64365;-1.756;110.040;2022-10-26T08:53:42;101304.91;;;18.98;63.77
64908;BME280;64365;-1.756;110.040;2022-10-26T08:56:16;101303.34;;;18.73;64.75
64908;BME280;64365;-1.756;110.040;2022-10-26T08:58:46;101295.97;;;18.50;65.84
64908;BME280;64365;-1.756;110.040;2022-10-26T09:01:15;101303.41;;;18.39;66.59
64908;BME280;64365;-1.756;110.040;2022-10-26T09:03:42;101306.06;;;18.42;67.61
64908;BME280;64365;-1.756;110.040;2022-10-26T09:06:19;101298.31;;;18.48;68.41
64908;BME280;64365;-1.756;110.040;2022-10-26T09:08:55;101296.72;;;18.78;67.66
64908;BME280;64365;-1.756;110.040;2022-10-26T09:11:36;101287.03;;;19.08;67.02
64908;BME280;64365;-1.756;110.040;2022-10-26T09:14:12;101295.44;;;19.57;66.27
64908;BME280;64365;-1.756;110.040;2022-10-26T09:16:47;101287.59;;;20.07;64.58
64908;BME280;64365;-1.756;110.040;2022-10-26T09:19:28;101291.72;;;20.48;62.36
64908;BME280;64365;-1.756;110.040;2022-10-26T09:22:00;101303.50;;;20.91;60.94
64908;BME280;64365;-1.756;110.040;2022-10-26T09:24:31;101313.53;;;21.23;60.87
64908;BME280;64365;-1.756;110.040;2022-10-26T09:27:06;101304.53;;;21.43;58.59
64908;BME280;64365;-1.756;110.040;2022-10-26T09:29:41;101312.03;;;21.51;59.62
64908;BME280;64365;-1.756;110.040;2022-10-26T09:32:14;101308.44;;;21.71;58.71
64908;BME280;64365;-1.756;110.040;2022-10-26T09:34:46;101319.06;;;21.78;58.08
64908;BME280;64365;-1.756;110.040;2022-10-26T09:37:16;101332.03;;;21.70;58.33
64908;BME280;64365;-1.756;110.040;2022-10-26T09:39:51;101332.19;;;21.63;58.56
64908;BME280;64365;-1.756;110.040;2022-10-26T09:42:22;101340.66;;;21.65;58.69
64908;BME280;64365;-1.756;110.040;2022-10-26T09:44:54;101328.66;;;21.66;58.07
64908;BME280;64365;-1.756;110.040;2022-10-26T09:47:30;101330.16;;;21.67;57.63
64908;BME280;64365;-1.756;110.040;2022-10-26T09:50:04;101336.63;;;21.57;58.44
64908;BME280;64365;-1.756;110.040;2022-10-26T09:52:32;101336.38;;;21.51;58.87
64908;BME280;64365;-1.756;110.040;2022-10-26T09:54:58;101337.31;;;21.45;58.82
64908;BME280;64365;-1.756;110.040;2022-10-26T09:57:26;101350.69;;;21.19;59.73
64908;BME280;64365;-1.756;110.040;2022-10-26T09:59:53;101358.72;;;20.90;60.51
64908;BME280;64365;-1.756;110.040;2022-10-26T10:02:34;101359.66;;;20.63;61.34
64908;BME280;64365;-1.756;110.040;2022-10-26T10:05:01;101356.88;;;20.50;62.41
64908;BME280;64365;-1.756;110.040;2022-10-26T10:07:28;101353.47;;;20.46;62.40
64908;BME280;64365;-1.756;110.040;2022-10-26T10:10:10;101361.59;;;20.46;62.75
64908;BME280;64365;-1.756;110.040;2022-10-26T10:12:41;101362.06;;;20.41;62.95
64908;BME280;64365;-1.756;110.040;2022-10-26T10:15:16;101364.91;;;20.33;63.44
64908;BME280;64365;-1.756;110.040;2022-10-26T10:17:47;101367.28;;;20.31;63.64
64908;BME280;64365;-1.756;110.040;2022-10-26T10:20:18;101369.41;;;20.20;64.54
64908;BME280;64365;-1.756;110.040;2022-10-26T10:22:56;101365.13;;;20.23;64.59
64908;BME280;64365;-1.756;110.040;2022-10-26T10:25:31;101379.25;;;20.10;64.54
64908;BME280;64365;-1.756;110.040;2022-10-26T10:27:59;101380.00;;;19.91;65.47
64908;BME280;64365;-1.756;110.040;2022-10-26T10:30:28;101386.03;;;19.75;66.35
64908;BME280;64365;-1.756;110.040;2022-10-26T10:33:06;101388.56;;;19.62;67.24
64908;BME280;64365;-1.756;110.040;2022-10-26T10:35:33;101396.25;;;19.63;67.59
64908;BME280;64365;-1.756;110.040;2022-10-26T10:38:00;101402.28;;;19.71;67.66
64908;BME280;64365;-1.756;110.040;2022-10-26T10:40:28;101405.75;;;19.72;67.74
64908;BME280;64365;-1.756;110.040;2022-10-26T10:43:05;101412.97;;;19.78;67.62
64908;BME280;64365;-1.756;110.040;2022-10-26T10:45:33;101419.09;;;19.79;67.88
64908;BME280;64365;-1.756;110.040;2022-10-26T10:48:02;101421.81;;;19.79;68.61
64908;BME280;64365;-1.756;110.040;2022-10-26T10:50:30;101420.72;;;19.73;68.69
64908;BME280;64365;-1.756;110.040;2022-10-26T10:53:14;101429.00;;;19.62;69.14
64908;BME280;64365;-1.756;110.040;2022-10-26T10:55:54;101447.25;;;19.54;70.02
64908;BME280;64365;-1.756;110.040;2022-10-26T10:58:29;101445.00;;;19.49;70.57
64908;BME280;64365;-1.756;110.040;2022-10-26T11:01:01;101457.38;;;19.46;70.64
64908;BME280;64365;-1.756;110.040;2022-10-26T11:03:46;101456.00;;;19.34;71.13
64908;BME280;64365;-1.756;110.040;2022-10-26T11:06:19;101458.34;;;19.32;71.15
64908;BME280;64365;-1.756;110.040;2022-10-26T11:08:49;101462.47;;;19.13;72.05
64908;BME280;64365;-1.756;110.040;2022-10-26T11:11:19;101459.06;;;19.09;72.78
64908;BME280;64365;-1.756;110.040;2022-10-26T11:13:52;101460.28;;;19.05;73.16
64908;BME280;64365;-1.756;110.040;2022-10-26T11:16:22;101455.00;;;18.97;73.14
64908;BME280;64365;-1.756;110.040;2022-10-26T11:18:54;101477.00;;;18.92;73.50
64908;BME280;64365;-1.756;110.040;2022-10-26T11:21:26;101471.28;;;18.87;73.89
64908;BME280;64365;-1.756;110.040;2022-10-26T11:24:01;101474.03;;;18.79;74.38
64908;BME280;64365;-1.756;110.040;2022-10-26T11:26:39;101469.91;;;18.71;74.94
64908;BME280;64365;-1.756;110.040;2022-10-26T11:29:13;101471.94;;;18.63;75.49
64908;BME280;64365;-1.756;110.040;2022-10-26T11:31:45;101485.75;;;18.65;75.63
64908;BME280;64365;-1.756;110.040;2022-10-26T11:34:20;101483.06;;;18.65;75.56
64908;BME280;64365;-1.756;110.040;2022-10-26T11:36:55;101473.50;;;18.61;75.82
64908;BME280;64365;-1.756;110.040;2022-10-26T11:39:30;101489.25;;;18.62;75.81
64908;BME280;64365;-1.756;110.040;2022-10-26T11:42:05;101473.09;;;18.62;76.08
64908;BME280;64365;-1.756;110.040;2022-10-26T11:44:38;101481.44;;;18.72;76.09
64908;BME280;64365;-1.756;110.040;2022-10-26T11:47:12;101482.53;;;18.78;75.77
64908;BME280;64365;-1.756;110.040;2022-10-26T11:49:45;101484.81;;;18.79;75.31
64908;BME280;64365;-1.756;110.040;2022-10-26T11:52:16;101484.44;;;18.81;75.24
64908;BME280;64365;-1.756;110.040;2022-10-26T11:54:48;101497.06;;;18.84;75.16
64908;BME280;64365;-1.756;110.040;2022-10-26T11:57:17;101510.50;;;18.88;74.91
64908;BME280;64365;-1.756;110.040;2022-10-26T11:59:48;101504.75;;;18.89;74.68
64908;BME280;64365;-1.756;110.040;2022-10-26T12:02:18;101496.31;;;18.83;74.87
64908;BME280;64365;-1.756;110.040;2022-10-26T12:04:51;101507.44;;;18.85;75.08
64908;BME280;64365;-1.756;110.040;2022-10-26T12:07:23;101488.94;;;18.91;74.97
64908;BME280;64365;-1.756;110.040;2022-10-26T12:09:53;101499.28;;;18.93;75.03
64908;BME280;64365;-1.756;110.040;2022-10-26T12:12:25;101504.09;;;19.09;74.79
64908;BME280;64365;-1.756;110.040;2022-10-26T12:15:04;101493.53;;;19.22;73.61
64908;BME280;64365;-1.756;110.040;2022-10-26T12:17:38;101495.38;;;19.28;73.31
64908;BME280;64365;-1.756;110.040;2022-10-26T12:20:09;101494.66;;;19.24;73.66
64908;BME280;64365;-1.756;110.040;2022-10-26T12:22:43;101493.41;;;19.32;73.28
64908;BME280;64365;-1.756;110.040;2022-10-26T12:25:19;101504.19;;;19.32;73.37
64908;BME280;64365;-1.756;110.040;2022-10-26T12:27:52;101498.69;;;19.40;73.96
64908;BME280;64365;-1.756;110.040;2022-10-26T12:30:26;101506.56;;;19.54;73.66
64908;BME280;64365;-1.756;110.040;2022-10-26T12:32:54;101515.50;;;19.75;72.16
64908;BME280;64365;-1.756;110.040;2022-10-26T12:35:39;101522.47;;;19.72;71.38
64908;BME280;64365;-1.756;110.040;2022-10-26T12:41:23;101523.91;;;19.80;71.55
64908;BME280;64365;-1.756;110.040;2022-10-26T12:43:54;101523.25;;;19.96;70.91
64908;BME280;64365;-1.756;110.040;2022-10-26T12:46:41;101520.84;;;20.02;70.62
64908;BME280;64365;-1.756;110.040;2022-10-26T12:52:21;101529.47;;;20.17;69.14
64908;BME280;64365;-1.756;110.040;2022-10-26T12:58:06;101516.53;;;20.08;68.85